Time;durP1;ratioP1;P1;durP2;ratioP2;P2;SDS_P1;SDS_P2;PMS_P1;PMS_P2;Temp;Humidity;BMP_temperature;BMP_pressure;BME280_temperature;BME280_humidity;BME280_pressure;Samples;Min_cycle;Max_cycle;Signal;HPM_P1;HPM_P2
2022/09/30 00:01:46;;;;;;;6.20;2.97;;;9.40;99.90;;;;;;5054266;28;20301;-66
2022/09/30 00:04:20;;;;;;;5.53;3.23;;;9.30;99.90;;;;;;5072610;28;20106;-65
2022/09/30 00:06:47;;;;;;;5.45;3.70;;;9.30;99.90;;;;;;5054691;28;20306;-65
2022/09/30 00:09:13;;;;;;;5.10;3.30;;;9.30;99.90;;;;;;5072111;28;20137;-65
2022/09/30 00:11:40;;;;;;;6.57;3.47;;;9.30;99.90;;;;;;5072360;28;20318;-65
2022/09/30 00:14:11;;;;;;;4.47;2.83;;;9.20;99.90;;;;;;5072064;28;20131;-66
2022/09/30 00:16:37;;;;;;;7.23;3.20;;;9.30;99.90;;;;;;5072263;28;20364;-65
2022/09/30 00:19:04;;;;;;;8.93;3.63;;;9.20;99.90;;;;;;5072108;28;20696;-65
2022/09/30 00:21:32;;;;;;;8.17;3.57;;;9.20;99.90;;;;;;5072240;28;20127;-65
2022/09/30 00:23:58;;;;;;;5.40;3.23;;;9.20;99.90;;;;;;5072028;28;20369;-65
2022/09/30 00:26:24;;;;;;;5.30;3.23;;;9.20;99.90;;;;;;5072202;28;20275;-65
2022/09/30 00:28:55;;;;;;;4.87;3.37;;;9.20;99.90;;;;;;5054296;28;20336;-66
2022/09/30 00:31:23;;;;;;;5.53;3.03;;;9.10;99.90;;;;;;5072393;28;20036;-65
2022/09/30 00:34:07;;;;;;;7.17;3.30;;;9.10;99.90;;;;;;5071904;28;20274;-66
2022/09/30 00:36:48;;;;;;;6.47;2.93;;;9.00;99.90;;;;;;5071909;28;20810;-65
2022/09/30 00:39:25;;;;;;;4.83;2.90;;;9.00;99.90;;;;;;5071764;28;20841;-65
2022/09/30 00:41:57;;;;;;;5.63;2.80;;;9.00;99.90;;;;;;5071541;28;20751;-65
2022/09/30 00:44:38;;;;;;;5.63;2.90;;;;;;;;;;5072482;28;20619;-65
2022/09/30 00:47:14;;;;;;;4.03;2.63;;;9.20;99.90;;;;;;5073247;28;20351;-66
2022/09/30 00:49:39;;;;;;;;;;;9.00;99.90;;;;;;5076061;28;20278;-65
2022/09/30 00:52:05;;;;;;;6.03;3.20;;;8.90;99.90;;;;;;5075018;28;19920;-66
2022/09/30 00:54:31;;;;;;;8.33;3.20;;;8.90;99.90;;;;;;5075495;28;20131;-65
2022/09/30 00:57:01;;;;;;;4.73;2.73;;;8.90;99.90;;;;;;5075252;28;20048;-65
2022/09/30 00:59:43;;;;;;;4.27;2.70;;;8.80;99.90;;;;;;5075569;28;20106;-65
2022/09/30 01:02:10;;;;;;;4.20;2.87;;;8.80;99.90;;;;;;5075047;28;20298;-65
2022/09/30 01:04:37;;;;;;;4.43;2.83;;;8.70;99.90;;;;;;5075377;28;20275;-65
2022/09/30 01:07:05;;;;;;;6.43;2.87;;;8.70;99.90;;;;;;5075036;28;20271;-65
2022/09/30 01:09:37;;;;;;;4.13;2.60;;;8.70;99.90;;;;;;5075220;28;20278;-65
2022/09/30 01:12:09;;;;;;;6.53;2.90;;;8.70;99.90;;;;;;5074978;28;20328;-65
2022/09/30 01:14:36;;;;;;;4.90;2.90;;;8.70;99.90;;;;;;5075308;28;20314;-65
2022/09/30 01:17:35;;;;;;;8.47;3.60;;;8.60;99.90;;;;;;5056701;28;20279;-65
2022/09/30 01:20:36;;;;;;;4.70;2.60;;;8.70;99.90;;;;;;5074836;28;20286;-66
2022/09/30 01:23:37;;;;;;;3.90;2.60;;;8.60;99.90;;;;;;5074505;28;20766;-65
2022/09/30 01:26:14;;;;;;;4.43;2.90;;;8.60;99.90;;;;;;5057206;28;20291;-65
2022/09/30 01:29:15;;;;;;;5.90;2.80;;;8.60;99.90;;;;;;5075076;28;20271;-65
2022/09/30 01:32:00;;;;;;;4.27;2.60;;;8.50;99.90;;;;;;5075086;28;20279;-65
2022/09/30 01:34:49;;;;;;;5.90;2.85;;;8.50;99.90;;;;;;5074893;28;20279;-65
2022/09/30 01:37:34;;;;;;;5.10;2.80;;;8.50;99.90;;;;;;5074538;28;20052;-65
2022/09/30 01:40:21;;;;;;;5.00;2.80;;;8.50;99.90;;;;;;5056898;28;20670;-65
2022/09/30 01:43:00;;;;;;;6.33;3.10;;;8.50;99.90;;;;;;5075114;28;20047;-65
2022/09/30 01:45:41;;;;;;;7.17;3.10;;;8.50;99.90;;;;;;5074809;28;20277;-65
2022/09/30 01:48:24;;;;;;;6.37;3.70;;;8.40;99.90;;;;;;5074173;28;20310;-65
2022/09/30 01:50:57;;;;;;;7.30;3.63;;;8.40;99.90;;;;;;5074498;28;20317;-65
2022/09/30 01:53:44;;;;;;;7.27;3.30;;;8.40;99.90;;;;;;5074452;28;20372;-65
2022/09/30 01:56:30;;;;;;;4.77;3.20;;;8.40;99.90;;;;;;5056542;28;20370;-65
2022/09/30 01:59:11;;;;;;;3.80;2.40;;;8.50;99.90;;;;;;5074093;28;20692;-67
2022/09/30 02:01:46;;;;;;;4.10;2.50;;;8.50;99.90;;;;;;5074396;28;20323;-65
2022/09/30 02:04:36;;;;;;;5.53;3.50;;;8.40;99.90;;;;;;5074006;28;20354;-65
2022/09/30 02:07:10;;;;;;;4.67;2.63;;;8.30;99.90;;;;;;5073709;28;20552;-65
2022/09/30 02:10:06;;;;;;;4.10;2.60;;;8.30;99.90;;;;;;5074236;28;20336;-65
2022/09/30 02:12:34;;;;;;;;;;;8.40;99.90;;;;;;5072605;28;20374;-65
2022/09/30 02:15:08;;;;;;;4.97;2.43;;;8.30;99.90;;;;;;5073602;28;20340;-66
2022/09/30 02:18:05;;;;;;;4.70;2.53;;;8.20;99.90;;;;;;5073895;28;20291;-65
2022/09/30 02:20:35;;;;;;;4.70;2.70;;;8.20;99.90;;;;;;5073227;28;20673;-65
2022/09/30 02:23:17;;;;;;;4.93;2.80;;;8.20;99.90;;;;;;5073897;28;20318;-66
2022/09/30 02:25:49;;;;;;;7.27;2.67;;;8.20;99.90;;;;;;5073736;28;20658;-65
2022/09/30 02:28:22;;;;;;;8.33;3.50;;;8.30;99.90;;;;;;5073378;28;20311;-65
2022/09/30 02:30:51;;;;;;;5.30;3.13;;;8.20;99.90;;;;;;5056039;28;20377;-65
2022/09/30 02:33:24;;;;;;;4.60;2.80;;;8.20;99.90;;;;;;5072955;28;20767;-65
2022/09/30 02:35:57;;;;;;;4.70;2.93;;;8.10;99.90;;;;;;5073596;28;20357;-65
2022/09/30 02:38:41;;;;;;;6.60;3.40;;;8.10;99.90;;;;;;5073347;28;20279;-65
2022/09/30 02:41:09;;;;;;;5.17;3.40;;;8.10;99.90;;;;;;5073248;28;20682;-65
2022/09/30 02:43:35;;;;;;;6.70;3.00;;;8.10;99.90;;;;;;5073409;28;20275;-65
2022/09/30 02:46:34;;;;;;;6.03;2.80;;;8.10;99.90;;;;;;5073196;28;20313;-68
2022/09/30 02:49:07;;;;;;;8.17;2.50;;;8.10;99.90;;;;;;5068413;28;20786;-65
2022/09/30 02:52:10;;;;;;;21.80;3.10;;;8.10;99.90;;;;;;5073669;28;20279;-65
2022/09/30 02:54:50;;;;;;;4.40;2.70;;;8.10;99.90;;;;;;5073346;28;20378;-65
2022/09/30 02:57:26;;;;;;;17.40;3.00;;;8.10;99.90;;;;;;5073003;28;20724;-65
2022/09/30 02:59:52;;;;;;;18.20;2.67;;;8.10;99.90;;;;;;5072981;28;20826;-65
2022/09/30 03:02:19;;;;;;;4.00;2.30;;;8.00;99.90;;;;;;5072831;28;20385;-65
2022/09/30 03:04:48;;;;;;;6.73;2.93;;;8.00;99.90;;;;;;5073164;28;20044;-65
2022/09/30 03:07:14;;;;;;;3.83;2.37;;;8.00;99.90;;;;;;5072493;28;20766;-65
2022/09/30 03:09:40;;;;;;;4.50;2.40;;;8.00;99.90;;;;;;5072393;28;20286;-65
2022/09/30 03:12:25;;;;;;;3.70;2.30;;;8.00;99.90;;;;;;5072845;28;20040;-66
2022/09/30 03:15:00;;;;;;;;;;;8.00;99.90;;;;;;5073382;28;20481;-65
2022/09/30 03:17:52;;;;;;;5.37;2.93;;;7.90;99.90;;;;;;5072631;28;19993;-65
2022/09/30 03:20:35;;;;;;;4.77;2.60;;;7.90;99.90;;;;;;5072690;28;20326;-65
2022/09/30 03:23:33;;;;;;;5.23;2.73;;;7.90;99.90;;;;;;5073074;28;20290;-65
2022/09/30 03:26:23;;;;;;;4.50;2.90;;;7.90;99.90;;;;;;5072943;28;20287;-65
2022/09/30 03:29:17;;;;;;;5.30;2.93;;;7.90;99.90;;;;;;5072932;28;20279;-65
2022/09/30 03:32:06;;;;;;;5.30;3.23;;;7.90;99.90;;;;;;5017389;28;20321;-65
2022/09/30 03:34:59;;;;;;;5.70;3.00;;;7.90;99.90;;;;;;5072746;28;20293;-65
2022/09/30 03:37:49;;;;;;;4.43;3.10;;;7.90;99.90;;;;;;5072519;28;20314;-65
2022/09/30 03:40:42;;;;;;;4.50;2.87;;;7.90;99.90;;;;;;5072518;28;20275;-65
2022/09/30 03:43:14;;;;;;;5.97;3.17;;;7.80;99.90;;;;;;5072894;28;20275;-67
2022/09/30 03:45:49;;;;;;;4.30;2.80;;;7.90;99.90;;;;;;5055395;28;20387;-65
2022/09/30 03:48:15;;;;;;;5.35;3.13;;;7.90;99.90;;;;;;5072488;28;20271;-65
2022/09/30 03:50:42;;;;;;;4.80;3.10;;;7.80;99.90;;;;;;5072358;28;20044;-65
2022/09/30 03:53:11;;;;;;;5.07;3.23;;;7.80;99.90;;;;;;5072706;28;20286;-65
2022/09/30 03:55:49;;;;;;;4.60;3.10;;;7.80;99.90;;;;;;5072614;28;20281;-65
2022/09/30 03:58:16;;;;;;;5.90;3.03;;;7.80;99.90;;;;;;5054531;28;20311;-65
2022/09/30 04:00:48;;;;;;;5.73;3.03;;;7.80;99.90;;;;;;5072483;28;20283;-65
2022/09/30 04:03:15;;;;;;;6.67;3.80;;;7.80;99.90;;;;;;5072305;28;20287;-65
2022/09/30 04:05:41;;;;;;;4.63;3.27;;;7.80;99.90;;;;;;5072480;28;20270;-65
2022/09/30 04:08:07;;;;;;;6.97;3.60;;;7.70;99.90;;;;;;5072457;28;20361;-65
2022/09/30 04:10:33;;;;;;;4.80;3.30;;;7.80;99.90;;;;;;5071870;28;20370;-65
2022/09/30 04:12:59;;;;;;;4.53;2.97;;;;;;;;;;5072465;28;20059;-65
2022/09/30 04:15:26;;;;;;;5.33;3.57;;;7.80;99.90;;;;;;5054430;28;20044;-65
2022/09/30 04:17:52;;;;;;;5.43;3.53;;;7.80;99.90;;;;;;5072181;28;20323;-65
2022/09/30 04:20:18;;;;;;;5.60;3.43;;;7.80;99.90;;;;;;5054787;28;20822;-65
2022/09/30 04:22:43;;;;;;;5.17;3.50;;;7.80;99.90;;;;;;5076067;28;20702;-65
2022/09/30 04:25:09;;;;;;;5.27;3.30;;;7.80;99.90;;;;;;5058397;28;20279;-65
2022/09/30 04:27:35;;;;;;;5.30;3.57;;;7.70;99.90;;;;;;5057979;28;20503;-65
2022/09/30 04:30:01;;;;;;;4.60;2.97;;;7.70;99.90;;;;;;5076313;28;20278;-65
2022/09/30 04:32:27;;;;;;;6.73;3.43;;;7.70;99.90;;;;;;5075594;28;20485;-65
2022/09/30 04:34:53;;;;;;;6.10;3.00;;;7.70;99.90;;;;;;5075880;28;20052;-66
2022/09/30 04:37:20;;;;;;;5.30;3.10;;;7.70;99.90;;;;;;5075912;28;20282;-66
2022/09/30 04:39:45;;;;;;;4.80;3.20;;;7.60;99.90;;;;;;5075934;28;20635;-64
2022/09/30 04:42:11;;;;;;;4.50;2.90;;;7.70;99.90;;;;;;5057801;28;20411;-65
2022/09/30 04:44:37;;;;;;;4.43;2.97;;;7.60;99.90;;;;;;5057912;28;20132;-66
2022/09/30 04:47:02;;;;;;;5.57;3.17;;;7.70;99.90;;;;;;5075793;28;20049;-65
2022/09/30 04:49:28;;;;;;;4.97;2.87;;;7.60;99.90;;;;;;5075412;28;20378;-66
2022/09/30 04:51:54;;;;;;;4.83;3.27;;;7.60;99.90;;;;;;5075850;28;20045;-66
2022/09/30 04:54:20;;;;;;;4.43;2.70;;;7.60;99.90;;;;;;5075174;28;20044;-66
2022/09/30 04:56:46;;;;;;;4.83;3.17;;;7.60;99.90;;;;;;5075570;28;20048;-65
2022/09/30 04:59:11;;;;;;;5.10;2.60;;;7.60;99.90;;;;;;5075463;28;20048;-65
2022/09/30 05:01:39;;;;;;;4.73;2.73;;;7.50;99.90;;;;;;5075101;28;20086;-65
2022/09/30 05:04:05;;;;;;;4.83;3.00;;;;;;;;;;5075372;28;20125;-65
2022/09/30 05:06:31;;;;;;;5.70;3.13;;;7.60;99.90;;;;;;5075053;28;20321;-66
2022/09/30 05:08:56;;;;;;;4.90;2.70;;;7.50;99.90;;;;;;5075257;28;20306;-66
2022/09/30 05:11:22;;;;;;;5.57;3.00;;;7.50;99.90;;;;;;5074927;28;20093;-66
2022/09/30 05:13:49;;;;;;;4.63;3.20;;;7.50;99.90;;;;;;5074845;28;20067;-65
2022/09/30 05:16:16;;;;;;;5.47;2.90;;;7.50;99.90;;;;;;5075141;28;20147;-65
2022/09/30 05:18:44;;;;;;;5.97;2.93;;;7.40;99.90;;;;;;5074614;28;20286;-65
2022/09/30 05:21:12;;;;;;;4.30;2.90;;;7.40;99.90;;;;;;5075004;28;20291;-65
2022/09/30 05:23:37;;;;;;;5.17;3.47;;;7.50;99.90;;;;;;5074779;28;20275;-65
2022/09/30 05:26:03;;;;;;;6.10;3.10;;;7.40;99.90;;;;;;5075015;28;20756;-65
2022/09/30 05:28:32;;;;;;;7.00;3.50;;;7.40;99.90;;;;;;5074581;28;20045;-65
2022/09/30 05:31:01;;;;;;;4.90;3.30;;;7.40;99.90;;;;;;5075060;28;20687;-67
2022/09/30 05:33:28;;;;;;;5.00;3.33;;;7.40;99.90;;;;;;5073764;28;20324;-67
2022/09/30 05:35:58;;;;;;;6.20;3.87;;;7.40;99.90;;;;;;5074683;28;20279;-67
2022/09/30 05:38:24;;;;;;;6.00;3.83;;;7.40;99.90;;;;;;5074466;28;20271;-67
2022/09/30 05:40:49;;;;;;;8.70;3.50;;;7.30;99.90;;;;;;5056868;28;20291;-67
2022/09/30 05:43:15;;;;;;;5.30;3.20;;;7.30;99.90;;;;;;5074727;28;20051;-67
2022/09/30 05:45:41;;;;;;;7.90;4.10;;;7.40;99.90;;;;;;5056708;28;20091;-67
2022/09/30 05:48:06;;;;;;;7.10;3.70;;;7.30;99.90;;;;;;5074549;28;20084;-67
2022/09/30 05:50:33;;;;;;;6.37;3.20;;;7.30;99.90;;;;;;5074190;28;20049;-67
2022/09/30 05:52:59;;;;;;;5.60;3.73;;;7.30;99.90;;;;;;5074482;28;20041;-67
2022/09/30 05:55:25;;;;;;;7.13;3.53;;;7.30;99.90;;;;;;5074100;28;20325;-67
2022/09/30 05:57:51;;;;;;;6.03;3.23;;;7.40;99.90;;;;;;5057135;28;20372;-67
2022/09/30 06:00:18;;;;;;;5.73;3.30;;;7.40;99.90;;;;;;5074067;28;20499;-67
2022/09/30 06:02:44;;;;;;;5.27;3.50;;;7.50;99.90;;;;;;5073921;28;20378;-67
2022/09/30 06:05:10;;;;;;;5.43;3.20;;;7.50;99.90;;;;;;5074473;28;20412;-67
2022/09/30 06:07:37;;;;;;;4.90;3.13;;;7.50;99.90;;;;;;5073939;28;20119;-67
2022/09/30 06:10:09;;;;;;;5.30;3.40;;;7.50;99.90;;;;;;5074073;28;20275;-67
2022/09/30 06:12:36;;;;;;;5.73;3.40;;;7.50;99.90;;;;;;5073548;28;20743;-67
2022/09/30 06:15:01;;;;;;;6.43;3.47;;;7.50;99.90;;;;;;5074045;28;20271;-67
2022/09/30 06:17:27;;;;;;;5.47;3.40;;;7.50;99.90;;;;;;5073684;28;20781;-67
2022/09/30 06:19:53;;;;;;;5.67;3.60;;;7.50;99.90;;;;;;5073935;28;20396;-67
2022/09/30 06:22:18;;;;;;;7.03;3.87;;;7.60;99.90;;;;;;5073916;28;20045;-67
2022/09/30 06:24:45;;;;;;;5.00;3.40;;;7.60;99.90;;;;;;5055966;28;20362;-67
2022/09/30 06:27:11;;;;;;;9.67;3.57;;;7.60;99.90;;;;;;5074062;28;20049;-67
2022/09/30 06:29:37;;;;;;;5.10;3.13;;;7.60;99.90;;;;;;5073501;28;20293;-67
2022/09/30 06:32:03;;;;;;;8.07;4.53;;;7.60;99.90;;;;;;5056128;28;20730;-67
2022/09/30 06:34:29;;;;;;;7.73;4.20;;;7.60;99.90;;;;;;5073502;28;20275;-67
2022/09/30 06:36:54;;;;;;;6.20;4.17;;;7.70;99.90;;;;;;5073656;28;20274;-67
2022/09/30 06:39:20;;;;;;;9.27;4.67;;;7.70;99.90;;;;;;5055777;28;20044;-67
2022/09/30 06:41:46;;;;;;;7.33;4.47;;;7.70;99.90;;;;;;5073183;28;20040;-67
2022/09/30 06:44:11;;;;;;;7.03;4.70;;;7.70;99.90;;;;;;5055053;28;20041;-67
2022/09/30 06:46:38;;;;;;;8.03;4.43;;;7.80;99.90;;;;;;5073240;28;20046;-67
2022/09/30 06:49:05;;;;;;;6.80;4.40;;;7.80;99.90;;;;;;5073828;28;20045;-67
2022/09/30 06:51:35;;;;;;;9.80;5.83;;;7.80;99.90;;;;;;5055558;28;20754;-67
2022/09/30 06:54:01;;;;;;;8.13;5.70;;;7.80;99.90;;;;;;5073323;28;20274;-67
2022/09/30 06:56:27;;;;;;;8.40;5.50;;;7.90;99.90;;;;;;5055662;28;20896;-67
2022/09/30 06:58:55;;;;;;;7.60;5.40;;;7.90;99.90;;;;;;5055268;28;20310;-65
2022/09/30 07:01:23;;;;;;;8.57;5.90;;;8.00;99.90;;;;;;5072932;28;20301;-65
2022/09/30 07:03:56;;;;;;;10.63;5.67;;;8.00;99.90;;;;;;5072867;28;20361;-65
2022/09/30 07:06:24;;;;;;;8.07;5.40;;;8.20;99.90;;;;;;5073306;28;20286;-65
2022/09/30 07:08:50;;;;;;;7.27;5.80;;;8.80;99.90;;;;;;5072874;28;20275;-65
2022/09/30 07:11:16;;;;;;;7.30;5.70;;;10.10;99.90;;;;;;5055505;28;20294;-65
2022/09/30 07:13:44;;;;;;;6.90;5.07;;;11.40;99.90;;;;;;5072830;28;20291;-66
2022/09/30 07:16:11;;;;;;;7.53;5.33;;;12.40;99.90;;;;;;5073163;28;20127;-65
2022/09/30 07:18:37;;;;;;;6.80;5.03;;;12.70;99.90;;;;;;5072878;28;20290;-66
2022/09/30 07:21:04;;;;;;;6.13;4.57;;;;;;;;;;5072956;28;20290;-65
2022/09/30 07:23:30;;;;;;;7.20;5.47;;;12.20;99.90;;;;;;5072941;28;20275;-65
2022/09/30 07:25:59;;;;;;;7.93;6.27;;;12.00;99.90;;;;;;5054870;28;20283;-65
2022/09/30 07:28:30;;;;;;;9.50;7.00;;;11.90;99.90;;;;;;5072987;28;20285;-66
2022/09/30 07:30:58;;;;;;;10.20;7.47;;;11.80;99.90;;;;;;5072553;28;20275;-64
2022/09/30 07:33:27;;;;;;;13.27;8.63;;;11.70;99.90;;;;;;5072824;28;20286;-65
2022/09/30 07:35:56;;;;;;;13.23;8.10;;;11.70;99.90;;;;;;5072560;28;20374;-66
2022/09/30 07:38:25;;;;;;;21.67;8.70;;;11.60;99.90;;;;;;5072673;28;20297;-66
2022/09/30 07:41:01;;;;;;;50.83;7.80;;;11.50;99.90;;;;;;5072387;28;20365;-66
2022/09/30 07:43:33;;;;;;;44.73;7.17;;;11.40;99.90;;;;;;5055133;28;20751;-66
2022/09/30 07:46:08;;;;;;;44.13;6.50;;;11.20;99.90;;;;;;5072533;28;20275;-65
2022/09/30 07:48:42;;;;;;;84.00;7.45;;;11.10;99.90;;;;;;5072683;28;20281;-65
2022/09/30 07:51:12;;;;;;;104.57;7.23;;;11.00;99.90;;;;;;5072950;28;20370;-65
2022/09/30 07:53:39;;;;;;;50.43;6.17;;;10.90;99.90;;;;;;5072156;28;20793;-66
2022/09/30 07:56:05;;;;;;;37.70;6.53;;;10.90;99.90;;;;;;5074653;28;20278;-65
2022/09/30 07:58:31;;;;;;;143.80;7.90;;;10.90;99.90;;;;;;5076659;28;20302;-65
2022/09/30 08:00:57;;;;;;;29.43;6.00;;;11.00;99.90;;;;;;5076248;28;20299;-65
2022/09/30 08:03:23;;;;;;;30.03;6.00;;;11.00;99.90;;;;;;5076635;28;20402;-65
2022/09/30 08:05:49;;;;;;;26.10;6.27;;;11.10;99.90;;;;;;5058262;28;20051;-65
2022/09/30 08:08:15;;;;;;;33.53;7.10;;;11.10;99.90;;;;;;5076443;28;20145;-65
2022/09/30 08:10:41;;;;;;;26.97;5.73;;;11.20;99.90;;;;;;5058316;28;20086;-66
2022/09/30 08:13:08;;;;;;;51.00;6.53;;;11.30;99.90;;;;;;5076669;28;20283;-65
2022/09/30 08:15:34;;;;;;;52.40;7.57;;;11.50;99.90;;;;;;5076318;28;20040;-65
2022/09/30 08:18:00;;;;;;;21.73;5.63;;;11.50;99.90;;;;;;5076128;28;20375;-65
2022/09/30 08:20:26;;;;;;;27.37;5.77;;;11.60;99.90;;;;;;5076295;28;20412;-65
2022/09/30 08:22:55;;;;;;;14.50;6.53;;;11.70;99.90;;;;;;5075859;28;20047;-65
2022/09/30 08:25:23;;;;;;;17.50;6.70;;;11.70;99.90;;;;;;5076123;28;20044;-65
2022/09/30 08:27:49;;;;;;;38.40;7.43;;;11.80;99.90;;;;;;5075892;28;20275;-65
2022/09/30 08:30:15;;;;;;;35.33;7.23;;;11.90;99.90;;;;;;5058122;28;20286;-65
2022/09/30 08:32:41;;;;;;;12.80;6.57;;;11.90;99.90;;;;;;5075988;28;20282;-67
2022/09/30 08:35:07;;;;;;;11.13;6.10;;;11.90;99.90;;;;;;5076012;28;20279;-65
2022/09/30 08:37:33;;;;;;;25.93;8.00;;;12.00;99.90;;;;;;5075963;28;20052;-65
2022/09/30 08:39:59;;;;;;;10.60;7.13;;;12.00;99.90;;;;;;5075829;28;20275;-65
2022/09/30 08:42:49;;;;;;;14.07;7.73;;;12.10;99.90;;;;;;5075880;28;20080;-65
2022/09/30 08:45:30;;;;;;;10.57;7.60;;;12.10;99.90;;;;;;5075858;28;20434;-65
2022/09/30 08:48:07;;;;;;;8.13;6.60;;;12.20;99.90;;;;;;5075637;28;20348;-66
2022/09/30 08:50:52;;;;;;;7.13;6.07;;;12.20;99.90;;;;;;5068711;28;20326;-65
2022/09/30 08:53:29;;;;;;;8.38;6.57;;;12.20;99.90;;;;;;5074859;28;20276;-66
2022/09/30 08:56:01;;;;;;;9.03;7.10;;;12.20;99.90;;;;;;5075189;28;20074;-66
2022/09/30 08:58:32;;;;;;;7.53;6.73;;;12.20;99.90;;;;;;5073219;28;20275;-66
2022/09/30 09:01:35;;;;;;;9.53;7.00;;;12.30;99.90;;;;;;5074331;28;20654;-66
2022/09/30 09:04:03;;;;;;;9.27;7.00;;;12.30;99.90;;;;;;5068839;28;20305;-68
2022/09/30 09:06:36;;;;;;;8.50;7.60;;;12.30;99.90;;;;;;5074599;28;20371;-68
2022/09/30 09:09:17;;;;;;;9.67;8.17;;;12.30;99.90;;;;;;5054475;28;20284;-70
2022/09/30 09:12:05;;;;;;;10.00;8.80;;;12.20;99.90;;;;;;5072997;28;20350;-70
2022/09/30 09:15:11;;;;;;;11.57;9.40;;;12.20;99.90;;;;;;5056168;28;20275;-70
2022/09/30 09:18:01;;;;;;;12.50;11.27;;;12.30;99.90;;;;;;5074186;28;20298;-71
2022/09/30 09:20:32;;;;;;;12.93;11.47;;;12.30;99.90;;;;;;5055367;28;20291;-71
2022/09/30 09:23:01;;;;;;;13.03;11.63;;;12.40;99.90;;;;;;5056606;28;20307;-71
2022/09/30 09:25:27;;;;;;;17.63;15.17;;;12.40;99.90;;;;;;5074684;28;20286;-71
2022/09/30 09:27:55;;;;;;;15.93;14.33;;;12.40;99.90;;;;;;5074917;28;20294;-72
2022/09/30 09:30:46;;;;;;;16.60;14.27;;;12.40;99.90;;;;;;5057570;28;20294;-69
2022/09/30 09:33:21;;;;;;;15.73;13.73;;;12.40;99.90;;;;;;5074823;28;20279;-70
2022/09/30 09:36:18;;;;;;;16.77;15.07;;;12.40;99.90;;;;;;5074954;28;20340;-65
2022/09/30 09:38:55;;;;;;;17.10;15.30;;;12.40;99.90;;;;;;5075145;28;20389;-67
2022/09/30 09:41:31;;;;;;;18.73;15.37;;;;;;;;;;5075037;28;20298;-65
2022/09/30 09:44:23;;;;;;;15.97;14.27;;;12.50;99.90;;;;;;5074672;28;20289;-71
2022/09/30 09:47:00;;;;;;;16.93;14.57;;;12.60;99.90;;;;;;5037438;28;20351;-71
2022/09/30 09:49:29;;;;;;;16.80;15.00;;;12.60;99.90;;;;;;5054935;28;20293;-67
2022/09/30 09:51:58;;;;;;;14.73;10.67;;;12.60;99.90;;;;;;5054328;28;20280;-67
2022/09/30 09:54:27;;;;;;;12.20;10.80;;;12.80;99.90;;;;;;5052791;28;20314;-67
2022/09/30 09:56:53;;;;;;;12.13;9.23;;;12.80;99.90;;;;;;5054053;28;20319;-68
2022/09/30 09:59:19;;;;;;;13.00;8.90;;;12.80;99.90;;;;;;5054439;28;20284;-67
2022/09/30 10:01:48;;;;;;;12.50;7.37;;;;;;;;;;5054455;28;20640;-67
2022/09/30 10:04:17;;;;;;;7.87;6.33;;;13.00;99.90;;;;;;5036418;28;20421;-67
2022/09/30 10:06:43;;;;;;;6.90;5.80;;;13.00;99.90;;;;;;5054198;28;20315;-67
2022/09/30 10:09:30;;;;;;;7.67;4.53;;;13.00;99.90;;;;;;5053993;28;20334;-67
2022/09/30 10:12:04;;;;;;;4.70;3.17;;;13.00;99.90;;;;;;5053936;28;20048;-67
2022/09/30 10:14:45;;;;;;;6.03;3.20;;;13.00;99.90;;;;;;5054125;28;20288;-67
2022/09/30 10:17:40;;;;;;;4.90;2.63;;;13.00;99.90;;;;;;5053923;28;20057;-67
2022/09/30 10:20:14;;;;;;;4.28;2.90;;;13.00;99.90;;;;;;5032297;28;20293;-67
2022/09/30 10:22:40;;;;;;;4.63;3.20;;;13.10;99.90;;;;;;5053954;28;20076;-67
2022/09/30 10:25:13;;;;;;;6.60;3.20;;;13.20;99.90;;;;;;5053674;28;20103;-67
2022/09/30 10:27:49;;;;;;;5.30;3.20;;;13.20;99.90;;;;;;5053862;28;20299;-67
2022/09/30 10:30:30;;;;;;;6.03;3.17;;;13.20;99.90;;;;;;5053606;28;20279;-67
2022/09/30 10:32:57;;;;;;;5.63;3.47;;;13.30;99.90;;;;;;5053855;28;20743;-67
2022/09/30 10:35:23;;;;;;;6.37;3.77;;;13.30;99.90;;;;;;5053695;28;20288;-67
2022/09/30 10:37:52;;;;;;;5.27;3.50;;;;;;;;;;5053706;28;20370;-67
2022/09/30 10:40:21;;;;;;;8.33;4.53;;;;;;;;;;5053416;28;20286;-67
2022/09/30 10:42:48;;;;;;;7.13;4.07;;;;;;;;;;5053560;28;20386;-67
2022/09/30 10:45:22;;;;;;;8.47;4.90;;;;;;;;;;5053462;28;20287;-67
2022/09/30 10:47:50;;;;;;;11.00;4.97;;;;;;;;;;5053608;28;20383;-67
2022/09/30 10:50:19;;;;;;;7.43;4.67;;;;;;;;;;5053246;28;20041;-67
2022/09/30 10:52:56;;;;;;;6.30;4.03;;;;;;;;;;5053452;28;20698;-67
2022/09/30 10:55:28;;;;;;;7.10;3.70;;;13.90;99.90;;;;;;5052824;28;20806;-67
2022/09/30 10:57:57;;;;;;;6.67;3.73;;;13.80;99.90;;;;;;5053624;28;20280;-67
2022/09/30 11:00:24;;;;;;;6.23;3.67;;;13.90;99.90;;;;;;5053241;28;20289;-67
2022/09/30 11:02:58;;;;;;;5.33;3.43;;;14.10;99.90;;;;;;5053123;28;20338;-67
2022/09/30 11:05:28;;;;;;;4.20;2.50;;;;;;;;;;5052812;28;20317;-67
2022/09/30 11:08:18;;;;;;;3.93;2.37;;;14.00;99.90;;;;;;5053076;28;20284;-67
2022/09/30 11:11:09;;;;;;;5.37;2.30;;;14.10;99.90;;;;;;5036421;28;20323;-67
2022/09/30 11:13:47;;;;;;;3.97;2.20;;;14.00;99.90;;;;;;5053243;28;20299;-68
2022/09/30 11:16:16;;;;;;;3.50;2.27;;;14.10;99.90;;;;;;5035382;28;20334;-68
2022/09/30 11:19:01;;;;;;;4.97;1.93;;;;;;;;;;5053256;28;20772;-68
2022/09/30 11:21:41;;;;;;;4.72;2.63;;;;;;;;;;5052865;28;20314;-67
2022/09/30 11:24:14;;;;;;;5.20;2.67;;;;;;;;;;5052820;28;20142;-68
2022/09/30 11:26:52;;;;;;;7.10;3.20;;;;;;;;;;5035526;28;20287;-68
2022/09/30 11:29:37;;;;;;;6.60;3.23;;;;;;;;;;5052655;28;20292;-67
2022/09/30 11:32:19;;;;;;;6.25;3.50;;;;;;;;;;5018212;28;20290;-70
2022/09/30 11:35:04;;;;;;;5.90;3.40;;;;;;;;;;5035471;28;20057;-66
2022/09/30 11:37:53;;;;;;;4.45;2.42;;;;;;;;;;5052624;28;20287;-67
2022/09/30 11:40:35;;;;;;;3.50;1.90;;;;;;;;;;5052641;28;20048;-69
2022/09/30 11:43:14;;;;;;;4.90;2.00;;;;;;;;;;5052927;28;20445;-68
2022/09/30 11:45:54;;;;;;;3.83;2.10;;;14.60;99.90;;;;;;5052903;28;20326;-69
2022/09/30 11:48:51;;;;;;;3.87;1.63;;;14.60;99.90;;;;;;5052635;28;20311;-69
2022/09/30 11:51:28;;;;;;;4.43;2.07;;;14.50;99.90;;;;;;5052461;28;20271;-69
2022/09/30 11:54:04;;;;;;;7.83;2.13;;;14.50;99.90;;;;;;5052959;28;20372;-69
2022/09/30 11:56:35;;;;;;;2.90;2.03;;;14.60;99.90;;;;;;5052328;28;20761;-70
2022/09/30 11:59:03;;;;;;;3.77;1.77;;;;;;;;;;5058397;28;20804;-69
2022/09/30 12:01:32;;;;;;;4.40;1.60;;;;;;;;;;5063880;28;20299;-69
2022/09/30 12:04:15;;;;;;;3.13;1.70;;;;;;;;;;5063000;28;20292;-72
2022/09/30 12:06:58;;;;;;;3.33;1.97;;;14.90;99.90;;;;;;5063886;28;20441;-69
2022/09/30 12:09:33;;;;;;;5.23;1.97;;;14.80;99.90;;;;;;5064410;28;20301;-68
2022/09/30 12:12:05;;;;;;;4.87;1.93;;;14.80;99.90;;;;;;5063060;28;20263;-67
2022/09/30 12:14:56;;;;;;;4.47;1.77;;;14.80;99.90;;;;;;5048978;28;20302;-68
2022/09/30 12:18:00;;;;;;;4.77;2.20;;;14.10;99.90;;;;;;5028371;28;20422;-69
2022/09/30 12:20:34;;;;;;;4.10;2.17;;;14.90;99.90;;;;;;4965858;28;20294;-67
2022/09/30 12:23:16;;;;;;;4.90;2.93;;;14.80;99.90;;;;;;5036524;28;20343;-67
2022/09/30 12:25:53;;;;;;;8.17;2.23;;;14.80;99.90;;;;;;5046916;28;20280;-69
2022/09/30 12:32:15;;;;;;;5.53;2.27;;;14.80;99.90;;;;;;5028452;28;20290;-68
2022/09/30 12:35:00;;;;;;;4.47;2.10;;;14.80;99.90;;;;;;5066609;28;20750;-67
2022/09/30 12:37:43;;;;;;;4.40;1.90;;;14.80;99.90;;;;;;5065485;28;20551;-67
2022/09/30 12:40:34;;;;;;;5.43;2.37;;;14.80;99.90;;;;;;5066711;28;20053;-68
2022/09/30 12:43:29;;;;;;;3.97;2.23;;;14.80;99.90;;;;;;5069442;28;20303;-67
2022/09/30 12:46:03;;;;;;;4.77;2.30;;;14.90;99.90;;;;;;5070143;28;20292;-68
2022/09/30 12:48:39;;;;;;;5.93;2.22;;;15.00;99.90;;;;;;5068591;28;20968;-67
2022/09/30 12:51:06;;;;;;;5.30;2.20;;;15.10;99.90;;;;;;5070271;28;20047;-68
2022/09/30 12:53:36;;;;;;;4.10;2.17;;;15.10;99.90;;;;;;5052572;28;20290;-69
2022/09/30 12:56:13;;;;;;;3.83;2.20;;;15.10;99.90;;;;;;5052804;28;20054;-66
2022/09/30 12:58:48;;;;;;;3.47;2.30;;;15.10;99.90;;;;;;5056505;28;20045;-66
2022/09/30 13:01:15;;;;;;;5.32;2.30;;;15.10;99.90;;;;;;5033189;28;20311;-68
2022/09/30 13:03:58;;;;;;;4.50;2.10;;;15.10;99.90;;;;;;5050198;28;20119;-67
2022/09/30 13:06:25;;;;;;;4.63;1.50;;;15.20;99.90;;;;;;5050343;28;20402;-67
2022/09/30 13:09:15;;;;;;;4.43;1.80;;;15.20;99.90;;;;;;5063576;28;20088;-67
2022/09/30 13:11:47;;;;;;;4.53;2.03;;;15.30;99.90;;;;;;5069468;28;20093;-68
2022/09/30 13:14:20;;;;;;;3.70;2.10;;;15.20;99.90;;;;;;5070063;28;20289;-69
2022/09/30 13:16:59;;;;;;;4.37;1.90;;;15.20;99.90;;;;;;5069731;28;20056;-68
2022/09/30 13:19:43;;;;;;;6.40;2.50;;;15.20;99.90;;;;;;5068337;28;20079;-69
2022/09/30 13:22:29;;;;;;;6.47;3.00;;;15.20;99.90;;;;;;5069574;28;20076;-68
2022/09/30 13:25:03;;;;;;;5.80;2.60;;;15.20;99.90;;;;;;5068367;28;20052;-66
2022/09/30 13:27:41;;;;;;;3.80;2.00;;;15.30;99.90;;;;;;5065474;28;20057;-68
2022/09/30 13:30:15;;;;;;;4.13;1.77;;;15.40;99.90;;;;;;5032524;28;20159;-68
2022/09/30 13:33:01;;;;;;;5.22;2.10;;;15.50;99.90;;;;;;5045529;28;20107;-68
2022/09/30 13:35:30;;;;;;;;;;;15.50;99.90;;;;;;5048937;28;20516;-67
2022/09/30 13:38:11;;;;;;;5.27;2.70;;;15.50;99.90;;;;;;5055945;28;19927;-68